createdAt,value
2023-04-12T00:00:12.096Z,5.40
2023-04-12T00:02:42.439Z,5.40
2023-04-12T00:05:13.905Z,5.40
2023-04-12T00:07:46.709Z,5.40
2023-04-12T00:10:15.475Z,5.30
2023-04-12T00:12:43.795Z,5.30
2023-04-12T00:15:12.752Z,5.30
2023-04-12T00:17:41.521Z,5.30
2023-04-12T00:20:12.751Z,5.30
2023-04-12T00:22:42.386Z,5.30
2023-04-12T00:25:11.500Z,5.30
2023-04-12T00:27:40.634Z,5.40
2023-04-12T00:30:10.185Z,5.40
2023-04-12T00:32:38.697Z,5.30
2023-04-12T00:35:08.540Z,5.30
2023-04-12T00:37:38.802Z,5.30
2023-04-12T00:40:11.745Z,5.30
2023-04-12T00:42:40.222Z,5.20
2023-04-12T00:45:10.394Z,5.20
2023-04-12T00:47:39.225Z,5.20
2023-04-12T00:50:09.562Z,5.20
2023-04-12T00:52:40.397Z,5.30
2023-04-12T00:55:11.108Z,5.30
2023-04-12T00:57:41.483Z,5.20
2023-04-12T01:00:13.487Z,5.30
2023-04-12T01:02:47.537Z,5.30
2023-04-12T01:05:21.686Z,5.40
2023-04-12T01:08:06.073Z,5.20
2023-04-12T01:10:47.381Z,5.30
2023-04-12T01:13:30.050Z,5.30
2023-04-12T01:16:08.961Z,5.20
2023-04-12T01:18:45.630Z,5.20
2023-04-12T01:21:20.640Z,5.10
2023-04-12T01:24:04.838Z,5.20
2023-04-12T01:26:42.259Z,5.30
2023-04-12T01:29:15.608Z,5.20
2023-04-12T01:31:55.713Z,5.30
2023-04-12T01:34:27.458Z,5.30
2023-04-12T01:36:58.232Z,5.20
2023-04-12T01:39:27.382Z,5.30
2023-04-12T01:41:55.750Z,5.20
2023-04-12T01:44:26.106Z,5.20
2023-04-12T01:46:54.716Z,5.20
2023-04-12T01:49:33.153Z,5.30
2023-04-12T01:52:13.056Z,5.30
2023-04-12T01:54:45.860Z,5.30
2023-04-12T01:57:16.700Z,5.20
2023-04-12T01:59:49.755Z,5.20
2023-04-12T02:02:19.151Z,5.20
2023-04-12T02:04:48.966Z,5.20
2023-04-12T02:07:20.476Z,5.10
2023-04-12T02:09:48.827Z,5.00
2023-04-12T02:12:21.305Z,5.00
2023-04-12T02:14:52.019Z,5.00
2023-04-12T02:17:21.180Z,5.00
2023-04-12T02:19:49.643Z,5.00
2023-04-12T02:22:20.804Z,5.10
2023-04-12T02:24:49.322Z,5.10
2023-04-12T02:27:19.803Z,5.10
2023-04-12T02:29:48.234Z,5.20
2023-04-12T02:32:17.905Z,5.10
2023-04-12T02:34:51.265Z,5.30
2023-04-12T02:37:24.247Z,5.30
2023-04-12T02:39:54.050Z,5.30
2023-04-12T02:42:22.465Z,5.30
2023-04-12T02:44:51.729Z,5.30
2023-04-12T02:47:22.442Z,5.40
2023-04-12T02:49:51.684Z,5.40
2023-04-12T02:52:21.321Z,5.40
2023-04-12T02:55:06.372Z,5.40
2023-04-12T02:57:35.146Z,5.40
2023-04-12T03:00:09.630Z,5.30
2023-04-12T03:02:46.065Z,5.30
2023-04-12T03:05:21.623Z,5.30
2023-04-12T03:07:50.073Z,5.20
2023-04-12T03:10:22.338Z,5.20
2023-04-12T03:12:57.854Z,5.20
2023-04-12T03:15:34.011Z,5.20
2023-04-12T03:18:04.537Z,5.10
2023-04-12T03:20:41.728Z,5.10
2023-04-12T03:23:11.362Z,5.20
2023-04-12T03:25:45.338Z,5.20
2023-04-12T03:28:34.016Z,5.20
2023-04-12T03:31:04.679Z,5.20
2023-04-12T03:33:42.560Z,5.20
2023-04-12T03:36:21.578Z,5.30
2023-04-12T03:38:54.928Z,5.30
2023-04-12T03:41:24.362Z,5.30
2023-04-12T03:43:52.734Z,5.30
2023-04-12T03:46:26.695Z,5.40
2023-04-12T03:49:00.503Z,5.30
2023-04-12T03:51:30.466Z,5.30
2023-04-12T03:54:04.344Z,5.30
2023-04-12T03:56:43.160Z,5.30
2023-04-12T03:59:19.982Z,5.40
2023-04-12T04:01:50.885Z,5.30
2023-04-12T04:04:21.554Z,5.30
2023-04-12T04:06:56.614Z,5.20
2023-04-12T04:09:26.160Z,5.20
2023-04-12T04:11:54.553Z,5.20
2023-04-12T04:14:24.094Z,5.20
2023-04-12T04:16:53.157Z,5.20
2023-04-12T04:19:23.770Z,5.20
2023-04-12T04:21:53.160Z,5.20
2023-04-12T04:24:22.396Z,5.30
2023-04-12T04:26:54.755Z,5.30
2023-04-12T04:29:29.156Z,5.30
2023-04-12T04:31:58.604Z,5.20
2023-04-12T04:34:29.340Z,5.20
2023-04-12T04:37:07.910Z,5.20
2023-04-12T04:39:36.292Z,5.30
2023-04-12T04:42:06.698Z,5.20
2023-04-12T04:44:40.813Z,5.20
2023-04-12T04:47:11.943Z,5.30
2023-04-12T04:49:41.616Z,5.30
2023-04-12T04:52:22.498Z,5.30
2023-04-12T04:54:51.922Z,5.40
2023-04-12T04:57:21.874Z,5.40
2023-04-12T04:59:50.615Z,5.50
2023-04-12T05:02:19.575Z,5.50
2023-04-12T05:04:49.379Z,5.50
2023-04-12T05:07:20.855Z,5.50
2023-04-12T05:09:50.449Z,5.50
2023-04-12T05:12:20.841Z,5.50
2023-04-12T05:15:01.237Z,5.50
2023-04-12T05:17:37.224Z,5.50
2023-04-12T05:20:10.651Z,5.60
2023-04-12T05:22:40.668Z,5.50
2023-04-12T05:25:10.510Z,5.50
2023-04-12T05:27:46.404Z,5.60
2023-04-12T05:30:17.904Z,5.60
2023-04-12T05:32:46.457Z,5.70
2023-04-12T05:35:18.254Z,5.70
2023-04-12T05:37:47.930Z,5.70
2023-04-12T05:40:16.319Z,5.80
2023-04-12T05:42:45.376Z,5.90
2023-04-12T05:45:14.041Z,5.90
2023-04-12T05:47:44.985Z,5.90
2023-04-12T05:50:13.307Z,5.90
2023-04-12T05:52:43.632Z,5.90
2023-04-12T05:55:12.324Z,6.00
2023-04-12T05:57:43.943Z,6.00
2023-04-12T06:00:17.252Z,6.10
2023-04-12T06:02:48.311Z,6.20
2023-04-12T06:05:18.031Z,6.30
2023-04-12T06:07:48.357Z,6.30
2023-04-12T06:10:18.480Z,6.30
2023-04-12T06:12:51.228Z,6.40
2023-04-12T06:15:20.907Z,6.50
2023-04-12T06:17:53.478Z,6.60
2023-04-12T06:20:22.213Z,6.80
2023-04-12T06:22:52.285Z,6.80
2023-04-12T06:25:21.287Z,6.80
2023-04-12T06:27:49.948Z,6.90
2023-04-12T06:30:20.909Z,6.90
2023-04-12T06:32:52.972Z,7.00
2023-04-12T06:35:21.543Z,7.00
2023-04-12T06:37:51.554Z,7.00
2023-04-12T06:40:19.820Z,7.20
2023-04-12T06:42:48.188Z,7.30
2023-04-12T06:45:23.187Z,7.40
2023-04-12T06:47:51.623Z,7.50
2023-04-12T06:50:20.107Z,7.60
2023-04-12T06:52:48.829Z,7.60
2023-04-12T06:55:19.498Z,7.70
2023-04-12T06:57:47.769Z,7.80
2023-04-12T07:00:16.880Z,7.90
2023-04-12T07:02:45.341Z,8.00
2023-04-12T07:05:13.838Z,8.20
2023-04-12T07:07:42.173Z,8.40
2023-04-12T07:10:11.113Z,8.50
2023-04-12T07:12:41.830Z,8.60
2023-04-12T07:15:11.768Z,8.60
2023-04-12T07:17:40.311Z,8.80
2023-04-12T07:20:09.655Z,8.80
2023-04-12T07:22:37.981Z,8.80
2023-04-12T07:25:10.146Z,8.80
2023-04-12T07:27:40.031Z,8.80
2023-04-12T07:30:09.981Z,8.80
2023-04-12T07:32:38.389Z,8.90
2023-04-12T07:35:08.004Z,8.90
2023-04-12T07:37:37.127Z,9.00
2023-04-12T07:40:07.166Z,9.00
2023-04-12T07:42:35.677Z,9.00
2023-04-12T07:45:06.128Z,9.00
2023-04-12T07:47:34.562Z,9.10
2023-04-12T07:50:04.017Z,9.10
2023-04-12T07:52:33.110Z,9.10
2023-04-12T07:55:01.658Z,9.00
2023-04-12T07:57:30.351Z,9.00
2023-04-12T07:59:59.379Z,9.00
2023-04-12T08:02:29.099Z,9.00
2023-04-12T08:04:57.926Z,9.00
2023-04-12T08:07:27.005Z,9.00
2023-04-12T08:09:55.290Z,9.10
2023-04-12T08:12:23.519Z,9.30
2023-04-12T08:14:51.785Z,9.50
2023-04-12T08:17:20.167Z,9.60
2023-04-12T08:19:49.808Z,9.60
2023-04-12T08:22:18.271Z,9.80
2023-04-12T08:24:46.657Z,9.90
2023-04-12T08:27:16.500Z,10.00
2023-04-12T08:29:45.106Z,10.00
2023-04-12T08:32:13.538Z,10.00
2023-04-12T08:34:43.707Z,10.10
2023-04-12T08:37:15.334Z,10.10
2023-04-12T08:39:43.626Z,10.00
2023-04-12T08:42:12.431Z,10.00
2023-04-12T08:44:41.416Z,10.10
2023-04-12T08:47:13.075Z,10.10
2023-04-12T08:49:41.488Z,10.10
2023-04-12T08:52:11.566Z,10.00
2023-04-12T08:54:41.503Z,10.00
2023-04-12T08:57:10.582Z,10.00
2023-04-12T08:59:41.928Z,10.00
2023-04-12T09:02:11.017Z,10.00
2023-04-12T09:04:49.730Z,10.10
2023-04-12T09:07:18.379Z,10.10
2023-04-12T09:09:49.141Z,10.10
2023-04-12T09:12:20.384Z,10.20
2023-04-12T09:14:49.144Z,10.20
2023-04-12T09:17:24.720Z,10.20
2023-04-12T09:19:55.880Z,10.20
2023-04-12T09:22:35.755Z,10.30
2023-04-12T09:25:06.308Z,10.30
2023-04-12T09:27:48.165Z,10.20
2023-04-12T09:30:18.940Z,10.10
2023-04-12T09:32:49.541Z,10.20
2023-04-12T09:35:18.761Z,10.20
2023-04-12T09:37:47.099Z,10.30
2023-04-12T09:40:16.894Z,10.20
2023-04-12T09:42:53.273Z,10.20
2023-04-12T09:45:25.396Z,10.20
2023-04-12T09:47:55.300Z,10.20
2023-04-12T09:50:26.431Z,10.30
2023-04-12T09:52:56.675Z,10.20
2023-04-12T09:55:28.344Z,10.10
2023-04-12T09:57:57.594Z,10.20
2023-04-12T10:00:27.628Z,10.20
2023-04-12T10:02:57.695Z,10.30
2023-04-12T10:05:27.882Z,10.30
2023-04-12T10:07:59.085Z,10.30
2023-04-12T10:10:32.425Z,10.30
2023-04-12T10:13:02.312Z,10.30
2023-04-12T10:15:32.366Z,10.40
2023-04-12T10:18:08.156Z,10.50
2023-04-12T10:20:37.470Z,10.50
2023-04-12T10:23:07.907Z,10.40
2023-04-12T10:25:42.126Z,10.40
2023-04-12T10:28:18.729Z,10.50
2023-04-12T10:30:48.213Z,10.50
2023-04-12T10:33:19.545Z,10.60
2023-04-12T10:35:57.805Z,10.70
2023-04-12T10:38:32.430Z,10.70
2023-04-12T10:41:17.012Z,10.70
2023-04-12T10:43:46.836Z,10.80
2023-04-12T10:46:52.093Z,10.80
2023-04-12T10:49:20.845Z,10.80
2023-04-12T10:52:18.239Z,10.70
2023-04-12T10:54:47.531Z,10.60
2023-04-12T10:57:45.419Z,10.60
2023-04-12T11:00:15.710Z,10.50
2023-04-12T11:03:09.907Z,10.40
2023-04-12T11:06:16.104Z,10.20
2023-04-12T11:09:07.542Z,10.10
2023-04-12T11:11:42.968Z,10.00
2023-04-12T11:14:14.295Z,9.90
2023-04-12T11:17:22.971Z,9.80
2023-04-12T11:20:01.402Z,9.80
2023-04-12T11:22:32.370Z,9.70
2023-04-12T11:25:03.389Z,9.60
2023-04-12T11:27:32.803Z,9.50
2023-04-12T11:30:02.820Z,9.40
2023-04-12T11:32:34.635Z,9.30
2023-04-12T11:35:03.231Z,9.30
2023-04-12T11:37:35.936Z,9.30
2023-04-12T11:40:06.369Z,9.20
2023-04-12T11:42:35.355Z,9.10
2023-04-12T11:45:14.337Z,9.10
2023-04-12T11:47:47.203Z,9.10
2023-04-12T11:50:30.646Z,9.00
2023-04-12T11:53:12.386Z,8.90
2023-04-12T11:55:40.716Z,8.90
2023-04-12T11:58:09.102Z,8.90
2023-04-12T12:00:39.168Z,8.90
2023-04-12T12:03:08.757Z,8.80
2023-04-12T12:05:39.254Z,8.80
2023-04-12T12:08:08.977Z,8.80
2023-04-12T12:10:49.161Z,8.80
2023-04-12T12:13:24.185Z,8.90
2023-04-12T12:15:54.820Z,8.90
2023-04-12T12:18:28.793Z,8.90
2023-04-12T12:20:57.177Z,9.00
2023-04-12T12:23:31.420Z,9.10
2023-04-12T12:26:10.500Z,9.10
2023-04-12T12:28:51.291Z,9.20
2023-04-12T12:31:24.393Z,9.20
2023-04-12T12:33:57.830Z,9.10
2023-04-12T12:36:33.509Z,9.10
2023-04-12T12:39:10.246Z,9.00
2023-04-12T12:41:39.249Z,9.00
2023-04-12T12:44:08.162Z,9.00
2023-04-12T12:49:09.373Z,9.10
2023-04-12T12:51:37.746Z,9.00
2023-04-12T12:54:06.247Z,9.00
2023-04-12T12:56:35.493Z,9.00
2023-04-12T12:59:03.752Z,9.00
2023-04-12T13:01:32.127Z,9.10
2023-04-12T13:04:01.917Z,9.10
2023-04-12T13:06:31.933Z,9.10
2023-04-12T13:09:00.513Z,9.10
2023-04-12T13:11:29.106Z,9.10
2023-04-12T13:13:57.673Z,9.20
2023-04-12T13:16:27.151Z,9.20
2023-04-12T13:18:56.998Z,9.30
2023-04-12T13:21:27.206Z,9.30
2023-04-12T13:23:55.500Z,9.40
2023-04-12T13:26:25.682Z,9.40
2023-04-12T13:28:54.070Z,9.30
2023-04-12T13:31:22.395Z,9.30
2023-04-12T13:33:50.718Z,9.20
2023-04-12T13:36:19.161Z,9.20
2023-04-12T13:38:48.836Z,9.30
2023-04-12T13:41:17.162Z,9.30
2023-04-12T13:43:45.535Z,9.20
2023-04-12T13:46:13.944Z,9.20
2023-04-12T13:48:42.722Z,9.20
2023-04-12T13:51:11.243Z,9.20
2023-04-12T13:53:39.619Z,9.20
2023-04-12T13:56:11.400Z,9.20
2023-04-12T13:58:40.576Z,9.30
2023-04-12T14:01:09.884Z,9.30
2023-04-12T14:03:38.305Z,9.30
2023-04-12T14:06:08.126Z,9.30
2023-04-12T14:08:37.206Z,9.30
2023-04-12T14:11:06.378Z,9.30
2023-04-12T14:13:36.059Z,9.40
2023-04-12T14:16:04.419Z,9.40
2023-04-12T14:18:32.781Z,9.40
2023-04-12T14:21:01.229Z,9.50
2023-04-12T14:23:30.747Z,9.50
2023-04-12T14:25:59.268Z,9.50
2023-04-12T14:28:30.812Z,9.50
2023-04-12T14:31:03.625Z,9.50
2023-04-12T14:33:33.597Z,9.50
2023-04-12T14:36:04.887Z,9.50
2023-04-12T14:38:33.571Z,9.40
2023-04-12T14:41:02.608Z,9.50
2023-04-12T14:43:30.922Z,9.50
2023-04-12T14:46:00.704Z,9.50
2023-04-12T14:48:29.108Z,9.60
2023-04-12T14:50:57.395Z,9.60
2023-04-12T14:53:25.790Z,9.60
2023-04-12T14:55:54.140Z,9.70
2023-04-12T14:58:22.453Z,9.70
2023-04-12T15:00:50.810Z,9.70
2023-04-12T15:03:20.868Z,9.70
2023-04-12T15:05:49.735Z,9.70
2023-04-12T15:08:18.024Z,9.70
2023-04-12T15:10:46.502Z,9.70
2023-04-12T15:13:14.910Z,9.60
2023-04-12T15:15:47.300Z,9.70
2023-04-12T15:18:16.414Z,9.70
2023-04-12T15:20:46.201Z,9.70
2023-04-12T15:23:15.696Z,9.70
2023-04-12T15:25:44.292Z,9.80
2023-04-12T15:28:12.651Z,9.80
2023-04-12T15:30:41.101Z,9.80
2023-04-12T15:33:10.405Z,9.70
2023-04-12T15:35:38.826Z,9.80
2023-04-12T15:38:13.989Z,9.70
2023-04-12T15:40:43.917Z,9.70
2023-04-12T15:43:12.792Z,9.70
2023-04-12T15:45:43.061Z,9.70
2023-04-12T15:48:11.391Z,9.70
2023-04-12T15:50:40.567Z,9.70
2023-04-12T15:53:10.265Z,9.60
2023-04-12T15:55:40.718Z,9.60
2023-04-12T15:58:09.753Z,9.50
2023-04-12T16:00:38.311Z,9.50
2023-04-12T16:03:07.580Z,9.50
2023-04-12T16:05:36.388Z,9.50
2023-04-12T16:08:05.831Z,9.50
2023-04-12T16:10:38.250Z,9.50
2023-04-12T16:13:06.720Z,9.60
2023-04-12T16:15:34.999Z,9.60
2023-04-12T16:18:03.433Z,9.60
2023-04-12T16:20:32.850Z,9.60
2023-04-12T16:23:01.198Z,9.60
2023-04-12T16:25:29.830Z,9.60
2023-04-12T16:28:02.291Z,9.50
2023-04-12T16:30:31.873Z,9.60
2023-04-12T16:33:00.450Z,9.60
2023-04-12T16:35:28.886Z,9.60
2023-04-12T16:37:57.205Z,9.60
2023-04-12T16:40:25.822Z,9.60
2023-04-12T16:42:55.354Z,9.60
2023-04-12T16:45:25.469Z,9.50
2023-04-12T16:47:54.107Z,9.50
2023-04-12T16:50:24.287Z,9.50
2023-04-12T16:52:53.068Z,9.60
2023-04-12T16:55:22.748Z,9.50
2023-04-12T16:57:53.146Z,9.60
2023-04-12T17:00:22.860Z,9.60
2023-04-12T17:02:54.477Z,9.60
2023-04-12T17:05:24.673Z,9.70
2023-04-12T17:07:55.308Z,9.70
2023-04-12T17:10:25.819Z,9.60
2023-04-12T17:12:57.425Z,9.60
2023-04-12T17:15:27.981Z,9.60
2023-04-12T17:18:06.239Z,9.60
2023-04-12T17:20:35.267Z,9.60
2023-04-12T17:23:04.170Z,9.60
2023-04-12T17:25:33.559Z,9.60
2023-04-12T17:28:03.183Z,9.60
2023-04-12T17:30:32.021Z,9.50
2023-04-12T17:33:01.957Z,9.50
2023-04-12T17:35:31.037Z,9.60
2023-04-12T17:37:59.485Z,9.50
2023-04-12T17:40:27.973Z,9.50
2023-04-12T17:42:56.362Z,9.50
2023-04-12T17:45:25.368Z,9.60
2023-04-12T17:47:54.553Z,9.50
2023-04-12T17:50:24.844Z,9.50
2023-04-12T17:52:55.244Z,9.50
2023-04-12T17:55:25.899Z,9.50
2023-04-12T17:57:54.610Z,9.50
2023-04-12T18:00:25.228Z,9.60
2023-04-12T18:02:54.787Z,9.50
2023-04-12T18:05:24.729Z,9.60
2023-04-12T18:07:53.055Z,9.50
2023-04-12T18:10:23.118Z,9.50
2023-04-12T18:12:51.485Z,9.50
2023-04-12T18:15:21.586Z,9.50
2023-04-12T18:17:50.006Z,9.50
2023-04-12T18:20:18.499Z,9.60
2023-04-12T18:22:48.227Z,9.50
2023-04-12T18:25:17.103Z,9.50
2023-04-12T18:27:48.440Z,9.50
2023-04-12T18:30:17.559Z,9.50
2023-04-12T18:32:46.423Z,9.60
2023-04-12T18:35:15.207Z,9.60
2023-04-12T18:37:44.025Z,9.60
2023-04-12T18:40:15.871Z,9.60
2023-04-12T18:42:45.298Z,9.60
2023-04-12T18:45:14.297Z,9.50
2023-04-12T18:47:44.640Z,9.50
2023-04-12T18:50:14.073Z,9.50
2023-04-12T18:52:42.431Z,9.50
2023-04-12T18:55:11.449Z,9.40
2023-04-12T18:57:41.222Z,9.30
2023-04-12T19:00:14.437Z,9.30
2023-04-12T19:02:43.083Z,9.30
2023-04-12T19:05:14.558Z,9.30
2023-04-12T19:07:42.884Z,9.30
2023-04-12T19:10:12.519Z,9.30
2023-04-12T19:12:42.260Z,9.30
2023-04-12T19:15:11.945Z,9.30
2023-04-12T19:17:40.523Z,9.30
2023-04-12T19:20:10.677Z,9.30
2023-04-12T19:22:39.030Z,9.30
2023-04-12T19:25:09.397Z,9.20
2023-04-12T19:27:39.471Z,9.20
2023-04-12T19:30:12.916Z,9.20
2023-04-12T19:32:42.352Z,9.10
2023-04-12T19:35:11.377Z,9.10
2023-04-12T19:37:39.657Z,9.00
2023-04-12T19:40:13.382Z,8.80
2023-04-12T19:42:42.120Z,8.50
2023-04-12T19:45:12.464Z,8.20
2023-04-12T19:47:44.741Z,8.10
2023-04-12T19:50:14.940Z,8.00
2023-04-12T19:52:44.051Z,7.90
2023-04-12T19:55:13.323Z,7.80
2023-04-12T19:57:41.920Z,7.80
2023-04-12T20:00:19.323Z,7.80
2023-04-12T20:02:49.070Z,7.70
2023-04-12T20:05:17.872Z,7.70
2023-04-12T20:07:46.371Z,7.70
2023-04-12T20:10:15.374Z,7.60
2023-04-12T20:12:44.294Z,7.50
2023-04-12T20:15:14.337Z,7.40
2023-04-12T20:17:44.654Z,7.50
2023-04-12T20:20:14.003Z,7.50
2023-04-12T20:22:44.131Z,7.50
2023-04-12T20:25:14.506Z,7.50
2023-04-12T20:27:44.609Z,7.40
2023-04-12T20:30:17.537Z,7.40
2023-04-12T20:32:45.917Z,7.40
2023-04-12T20:35:15.247Z,7.30
2023-04-12T20:37:43.508Z,7.30
2023-04-12T20:40:13.221Z,7.30
2023-04-12T20:42:42.424Z,7.30
2023-04-12T20:45:13.176Z,7.40
2023-04-12T20:47:42.870Z,7.40
2023-04-12T20:50:12.389Z,7.40
2023-04-12T20:52:40.751Z,7.40
2023-04-12T20:55:11.017Z,7.40
2023-04-12T20:57:40.289Z,7.40
2023-04-12T21:00:17.239Z,7.40
2023-04-12T21:02:48.597Z,7.30
2023-04-12T21:05:17.303Z,7.20
2023-04-12T21:07:46.910Z,7.30
2023-04-12T21:10:16.187Z,7.20
2023-04-12T21:12:44.891Z,7.20
2023-04-12T21:15:14.524Z,7.10
2023-04-12T21:17:43.368Z,7.10
2023-04-12T21:20:14.396Z,7.10
2023-04-12T21:22:44.491Z,7.10
2023-04-12T21:25:16.920Z,7.00
2023-04-12T21:27:47.676Z,7.00
2023-04-12T21:30:16.342Z,7.00
2023-04-12T21:32:44.919Z,6.90
2023-04-12T21:35:16.356Z,6.90
2023-04-12T21:37:44.880Z,6.90
2023-04-12T21:40:13.841Z,6.80
2023-04-12T21:42:44.261Z,6.80
2023-04-12T21:45:14.240Z,6.80
2023-04-12T21:47:44.060Z,6.80
2023-04-12T21:50:14.558Z,6.80
2023-04-12T21:52:44.056Z,6.80
2023-04-12T21:55:12.636Z,6.80
2023-04-12T21:57:41.252Z,6.80
2023-04-12T22:00:10.881Z,6.80
2023-04-12T22:02:42.442Z,6.70
2023-04-12T22:05:11.703Z,6.70
2023-04-12T22:07:41.760Z,6.70
2023-04-12T22:10:12.364Z,6.70
2023-04-12T22:12:41.143Z,6.70
2023-04-12T22:15:11.720Z,6.70
2023-04-12T22:17:40.982Z,6.60
2023-04-12T22:20:11.098Z,6.70
2023-04-12T22:22:41.228Z,6.60
2023-04-12T22:25:12.657Z,6.60
2023-04-12T22:27:41.055Z,6.60
2023-04-12T22:30:11.551Z,6.50
2023-04-12T22:32:40.483Z,6.50
2023-04-12T22:35:10.304Z,6.50
2023-04-12T22:37:41.126Z,6.60
2023-04-12T22:40:13.361Z,6.60
2023-04-12T22:42:46.217Z,6.60
2023-04-12T22:45:15.966Z,6.70
2023-04-12T22:47:44.788Z,6.60
2023-04-12T22:50:13.649Z,6.60
2023-04-12T22:52:42.149Z,6.70
2023-04-12T22:55:14.149Z,6.70
2023-04-12T22:57:42.436Z,6.70
2023-04-12T23:00:17.076Z,6.70
2023-04-12T23:02:47.704Z,6.70
2023-04-12T23:05:16.250Z,6.80
2023-04-12T23:07:44.677Z,6.80
2023-04-12T23:10:14.355Z,6.80
2023-04-12T23:12:42.702Z,6.80
2023-04-12T23:15:12.553Z,6.80
2023-04-12T23:17:40.921Z,6.70
2023-04-12T23:20:13.067Z,6.70
2023-04-12T23:22:57.303Z,6.70
2023-04-12T23:25:39.000Z,6.60
2023-04-12T23:28:12.323Z,6.60
2023-04-12T23:30:44.317Z,6.50
2023-04-12T23:33:12.844Z,6.50
2023-04-12T23:35:41.909Z,6.50
2023-04-12T23:38:15.554Z,6.50
2023-04-12T23:40:46.729Z,6.50
2023-04-12T23:43:15.119Z,6.60
2023-04-12T23:45:43.567Z,6.70
2023-04-12T23:48:12.412Z,6.60
2023-04-12T23:50:40.710Z,6.70
2023-04-12T23:53:09.014Z,6.70
2023-04-12T23:55:38.743Z,6.80
2023-04-12T23:58:08.646Z,6.90
